Barrancabermeja, Barrancabermeja Yariguies Airport (SKEJ)

NameBarrancabermeja Yariguies Airport
CityBarrancabermeja
CountryColombia
ICAOSKEJ
IATAEJA
Altitude126 m
CoordinatesGoogle Map
Live Air TrafficLiveATC.net
METARSKEJ 182100Z 14004KT 9999 FEW020 33/23 A2964
2019-03-18 21:00:00 Wind: Southeast (140°) 2.06 m/s - Visibility: > 10000 m - Temperature: 33 °C - Dew point: 23 °C - Humidity: 55.7% - Pressure: 1003.73 hPa

Sorry, no flights used the airport in this database.